createdAt,value
2022-10-05T00:00:20.441Z,7.07
2022-10-05T00:02:48.457Z,7.07
2022-10-05T00:05:30.918Z,7.07
2022-10-05T00:08:11.742Z,7.03
2022-10-05T00:10:41.401Z,7.03
2022-10-05T00:13:26.091Z,7.02
2022-10-05T00:16:29.081Z,6.95
2022-10-05T00:18:55.593Z,6.98
2022-10-05T00:21:28.876Z,6.93
2022-10-05T00:23:57.544Z,6.89
2022-10-05T00:26:26.277Z,6.84
2022-10-05T00:28:54.356Z,6.87
2022-10-05T00:31:24.180Z,6.90
2022-10-05T00:33:50.913Z,6.93
2022-10-05T00:36:17.606Z,6.94
2022-10-05T00:38:45.471Z,6.97
2022-10-05T00:41:20.470Z,6.94
2022-10-05T00:44:35.160Z,6.91
2022-10-05T00:47:28.771Z,6.87
2022-10-05T00:50:22.753Z,6.92
2022-10-05T00:53:21.490Z,6.94
2022-10-05T00:56:06.566Z,6.88
2022-10-05T00:58:56.251Z,6.91
2022-10-05T01:01:44.099Z,6.82
2022-10-05T01:04:48.586Z,6.76
2022-10-05T01:07:37.819Z,6.71
2022-10-05T01:10:16.159Z,6.78
2022-10-05T01:13:07.225Z,6.82
2022-10-05T01:15:58.005Z,6.82
2022-10-05T01:18:39.517Z,6.75
2022-10-05T01:21:17.466Z,6.61
2022-10-05T01:23:43.830Z,6.49
2022-10-05T01:26:33.697Z,6.40
2022-10-05T01:29:23.923Z,6.35
2022-10-05T01:32:43.002Z,6.35
2022-10-05T01:35:35.398Z,6.35
2022-10-05T01:38:25.973Z,6.31
2022-10-05T01:41:11.595Z,6.35
2022-10-05T01:43:47.997Z,6.30
2022-10-05T01:46:28.793Z,6.28
2022-10-05T01:49:17.702Z,6.30
2022-10-05T01:52:21.862Z,6.33
2022-10-05T01:55:02.898Z,6.23
2022-10-05T01:58:03.035Z,6.20
2022-10-05T02:00:35.469Z,6.13
2022-10-05T02:03:16.384Z,6.14
2022-10-05T02:06:10.130Z,6.16
2022-10-05T02:08:43.721Z,6.14
2022-10-05T02:11:17.219Z,6.06
2022-10-05T02:14:00.360Z,6.02
2022-10-05T02:16:40.341Z,5.98
2022-10-05T02:19:27.334Z,5.88
2022-10-05T02:22:01.375Z,5.79
2022-10-05T02:24:35.518Z,5.66
2022-10-05T02:27:05.108Z,5.59
2022-10-05T02:29:36.078Z,5.53
2022-10-05T02:32:07.331Z,5.47
2022-10-05T02:34:39.895Z,5.44
2022-10-05T02:37:34.699Z,5.49
2022-10-05T02:40:19.537Z,5.56
2022-10-05T02:43:12.211Z,5.60
2022-10-05T02:46:01.275Z,5.66
2022-10-05T02:48:44.277Z,5.67
2022-10-05T02:51:26.446Z,5.52
2022-10-05T02:54:30.038Z,5.38
2022-10-05T02:57:04.660Z,5.30
2022-10-05T02:59:43.073Z,5.36
2022-10-05T03:02:24.635Z,5.31
2022-10-05T03:05:20.403Z,5.26
2022-10-05T03:08:06.336Z,5.24
2022-10-05T03:10:46.077Z,5.25
2022-10-05T03:13:26.209Z,5.11
2022-10-05T03:16:20.663Z,5.06
2022-10-05T03:19:03.167Z,5.08
2022-10-05T03:21:51.723Z,5.05
2022-10-05T03:24:27.025Z,5.02
2022-10-05T03:27:02.281Z,5.00
2022-10-05T03:29:39.231Z,5.03
2022-10-05T03:32:11.713Z,5.10
2022-10-05T03:35:03.034Z,5.13
2022-10-05T03:37:41.919Z,5.16
2022-10-05T03:40:29.391Z,5.17
2022-10-05T03:43:22.210Z,5.06
2022-10-05T03:46:25.950Z,4.98
2022-10-05T03:49:04.194Z,4.98
2022-10-05T03:51:45.282Z,4.87
2022-10-05T03:54:34.789Z,4.83
2022-10-05T03:57:42.506Z,4.84
2022-10-05T04:00:23.180Z,4.78
2022-10-05T04:03:04.925Z,4.80
2022-10-05T04:05:51.874Z,4.76
2022-10-05T04:08:43.066Z,4.76
2022-10-05T04:11:38.052Z,4.69
2022-10-05T04:14:12.625Z,4.64
2022-10-05T04:16:44.875Z,4.70
2022-10-05T04:19:20.141Z,4.74
2022-10-05T04:22:19.313Z,4.72
2022-10-05T04:24:56.112Z,4.73
2022-10-05T04:27:30.522Z,4.73
2022-10-05T04:30:16.131Z,4.68
2022-10-05T04:32:52.466Z,4.76
2022-10-05T04:35:45.044Z,4.68
2022-10-05T04:38:23.365Z,4.66
2022-10-05T04:41:10.371Z,4.62
2022-10-05T04:43:42.814Z,4.59
2022-10-05T04:46:15.714Z,4.65
2022-10-05T04:48:50.860Z,4.66
2022-10-05T04:51:36.124Z,4.56
2022-10-05T04:54:47.162Z,4.54
2022-10-05T04:57:24.283Z,4.48
2022-10-05T05:00:05.859Z,4.56
2022-10-05T05:03:07.534Z,4.63
2022-10-05T05:05:53.042Z,4.67
2022-10-05T05:08:46.474Z,4.62
2022-10-05T05:11:31.862Z,4.65
2022-10-05T05:14:36.049Z,4.69
2022-10-05T05:17:27.553Z,4.73
2022-10-05T05:20:05.205Z,4.74
2022-10-05T05:22:50.267Z,4.65
2022-10-05T05:25:30.318Z,4.66
2022-10-05T05:28:14.546Z,4.61
2022-10-05T05:30:48.637Z,4.61
2022-10-05T05:33:27.303Z,4.59
2022-10-05T05:36:03.125Z,4.62
2022-10-05T05:38:40.952Z,4.71
2022-10-05T05:41:29.506Z,4.68
2022-10-05T05:44:10.545Z,4.72
2022-10-05T05:47:02.293Z,4.74
2022-10-05T05:49:46.985Z,4.76
2022-10-05T05:52:29.323Z,4.82
2022-10-05T05:55:14.211Z,4.88
2022-10-05T05:57:46.779Z,4.86
2022-10-05T06:00:13.922Z,4.84
2022-10-05T06:02:52.580Z,4.90
2022-10-05T06:05:44.014Z,4.89
2022-10-05T06:08:35.921Z,4.96
2022-10-05T06:11:35.736Z,5.01
2022-10-05T06:14:14.124Z,4.99
2022-10-05T06:16:49.562Z,5.05
2022-10-05T06:19:19.274Z,5.13
2022-10-05T06:22:08.886Z,5.19
2022-10-05T06:24:57.717Z,5.27
2022-10-05T06:27:37.043Z,5.31
2022-10-05T06:30:07.489Z,5.35
2022-10-05T06:33:13.882Z,5.47
2022-10-05T06:36:06.842Z,5.46
2022-10-05T06:38:34.031Z,5.60
2022-10-05T06:41:32.414Z,5.75
2022-10-05T06:44:08.300Z,5.83
2022-10-05T06:47:00.077Z,5.96
2022-10-05T06:49:53.391Z,6.05
2022-10-05T06:53:15.252Z,6.17
2022-10-05T06:55:48.648Z,6.31
2022-10-05T06:58:44.761Z,6.41
2022-10-05T07:01:18.814Z,6.48
2022-10-05T07:04:02.121Z,6.61
2022-10-05T07:07:10.883Z,6.76
2022-10-05T07:10:03.316Z,6.84
2022-10-05T07:12:42.963Z,6.89
2022-10-05T07:15:25.465Z,7.02
2022-10-05T07:18:04.595Z,7.15
2022-10-05T07:20:48.331Z,7.23
2022-10-05T07:23:47.635Z,7.34
2022-10-05T07:26:36.789Z,7.42
2022-10-05T07:29:12.701Z,7.58
2022-10-05T07:32:02.843Z,7.74
2022-10-05T07:34:52.955Z,7.84
2022-10-05T07:37:47.407Z,8.02
2022-10-05T07:40:27.405Z,8.12
2022-10-05T07:43:16.056Z,8.31
2022-10-05T07:46:01.726Z,8.44
2022-10-05T07:48:50.334Z,8.60
2022-10-05T07:51:34.931Z,8.76
2022-10-05T07:54:21.077Z,8.89
2022-10-05T07:57:06.942Z,9.07
2022-10-05T07:59:43.780Z,9.20
2022-10-05T08:02:45.688Z,9.36
2022-10-05T08:05:21.945Z,9.53
2022-10-05T08:07:54.204Z,9.66
2022-10-05T08:10:42.872Z,9.85
2022-10-05T08:13:19.857Z,10.04
2022-10-05T08:15:51.972Z,10.18
2022-10-05T08:18:18.455Z,10.36
2022-10-05T08:20:49.905Z,10.56
2022-10-05T08:23:38.685Z,10.81
2022-10-05T08:26:17.669Z,10.99
2022-10-05T08:28:55.848Z,11.17
2022-10-05T08:31:29.781Z,11.35
2022-10-05T08:34:10.839Z,11.53
2022-10-05T08:36:40.327Z,11.72
2022-10-05T08:39:16.035Z,11.99
2022-10-05T08:42:14.393Z,12.44
2022-10-05T08:45:16.142Z,12.79
2022-10-05T08:47:54.435Z,12.93
2022-10-05T08:50:54.962Z,13.18
2022-10-05T08:53:43.319Z,13.61
2022-10-05T08:56:32.662Z,13.86
2022-10-05T08:59:27.072Z,13.92
2022-10-05T09:01:56.677Z,14.14
2022-10-05T09:04:49.294Z,14.30
2022-10-05T09:07:36.700Z,14.44
2022-10-05T09:10:27.024Z,14.69
2022-10-05T09:13:34.589Z,14.89
2022-10-05T09:16:23.834Z,15.07
2022-10-05T09:19:23.813Z,15.04
2022-10-05T09:22:11.985Z,15.24
2022-10-05T09:24:56.147Z,15.37
2022-10-05T09:27:54.738Z,15.57
2022-10-05T09:31:04.876Z,15.59
2022-10-05T09:33:44.413Z,15.68
2022-10-05T09:36:22.985Z,15.75
2022-10-05T09:39:18.783Z,15.93
2022-10-05T09:42:16.225Z,16.03
2022-10-05T09:45:20.467Z,16.08
2022-10-05T09:47:56.583Z,16.16
2022-10-05T09:50:38.395Z,16.26
2022-10-05T09:53:15.990Z,16.44
2022-10-05T09:55:48.479Z,16.51
2022-10-05T09:58:54.992Z,16.71
2022-10-05T10:01:53.860Z,16.89
2022-10-05T10:04:41.727Z,17.07
2022-10-05T10:07:51.614Z,17.23
2022-10-05T10:10:54.998Z,17.32
2022-10-05T10:13:34.364Z,17.49
2022-10-05T10:16:23.879Z,17.61
2022-10-05T10:19:12.736Z,17.75
2022-10-05T10:22:09.164Z,17.83
2022-10-05T10:24:41.714Z,17.93
2022-10-05T10:27:27.515Z,18.03
2022-10-05T10:30:33.135Z,18.18
2022-10-05T10:33:30.039Z,18.29
2022-10-05T10:36:13.145Z,18.33
2022-10-05T10:38:47.326Z,18.43
2022-10-05T10:42:00.767Z,18.47
2022-10-05T10:44:42.750Z,18.55
2022-10-05T10:47:40.087Z,18.64
2022-10-05T10:50:54.276Z,18.75
2022-10-05T10:53:26.457Z,18.91
2022-10-05T10:56:17.602Z,18.90
2022-10-05T10:59:30.826Z,19.06
2022-10-05T11:02:19.276Z,19.05
2022-10-05T11:04:54.812Z,19.08
2022-10-05T11:07:45.458Z,19.09
2022-10-05T11:10:55.276Z,19.06
2022-10-05T11:13:40.026Z,19.09
2022-10-05T11:16:34.106Z,19.10
2022-10-05T11:20:02.403Z,19.14
2022-10-05T11:22:59.066Z,19.22
2022-10-05T11:25:53.077Z,19.43
2022-10-05T11:28:31.766Z,19.53
2022-10-05T11:31:07.088Z,19.67
2022-10-05T11:33:39.341Z,19.63
2022-10-05T11:36:25.427Z,19.61
2022-10-05T11:39:28.766Z,19.86
2022-10-05T11:42:13.053Z,19.87
2022-10-05T11:44:59.790Z,19.88
2022-10-05T11:47:26.144Z,19.96
2022-10-05T11:49:53.614Z,19.93
2022-10-05T11:52:31.666Z,20.15
2022-10-05T11:55:14.811Z,20.30
2022-10-05T11:58:07.371Z,20.16
2022-10-05T12:00:44.372Z,20.26
2022-10-05T12:03:10.942Z,20.38
2022-10-05T12:06:12.181Z,20.48
2022-10-05T12:08:53.554Z,20.71
2022-10-05T12:11:46.532Z,20.66
2022-10-05T12:14:34.513Z,20.83
2022-10-05T12:17:13.655Z,20.90
2022-10-05T12:19:45.917Z,21.04
2022-10-05T12:22:24.868Z,21.14
2022-10-05T12:25:17.038Z,21.03
2022-10-05T12:27:46.304Z,21.31
2022-10-05T12:30:18.463Z,21.38
2022-10-05T12:33:15.179Z,21.23
2022-10-05T12:35:48.274Z,21.37
2022-10-05T12:38:28.593Z,21.31
2022-10-05T12:41:10.813Z,21.08
2022-10-05T12:44:06.641Z,21.29
2022-10-05T12:46:51.413Z,21.32
2022-10-05T12:49:40.266Z,21.63
2022-10-05T12:52:28.248Z,21.76
2022-10-05T12:55:00.552Z,21.91
2022-10-05T12:57:43.443Z,22.15
2022-10-05T13:00:22.447Z,22.25
2022-10-05T13:02:54.486Z,22.18
2022-10-05T13:05:49.137Z,22.24
2022-10-05T13:08:42.438Z,22.28
2022-10-05T13:11:17.325Z,22.35
2022-10-05T13:13:57.565Z,22.47
2022-10-05T13:16:54.805Z,22.59
2022-10-05T13:19:27.552Z,22.20
2022-10-05T13:22:06.488Z,22.12
2022-10-05T13:24:41.994Z,22.58
2022-10-05T13:27:23.497Z,22.92
2022-10-05T13:30:35.046Z,22.92
2022-10-05T13:33:20.701Z,22.85
2022-10-05T13:36:12.454Z,23.17
2022-10-05T13:38:50.006Z,23.10
2022-10-05T13:41:32.456Z,22.87
2022-10-05T13:44:10.761Z,22.80
2022-10-05T13:46:48.927Z,23.06
2022-10-05T13:49:18.241Z,23.24
2022-10-05T13:52:06.619Z,23.28
2022-10-05T13:54:45.075Z,23.62
2022-10-05T13:57:26.159Z,23.68
2022-10-05T14:00:06.061Z,23.41
2022-10-05T14:02:41.655Z,24.21
2022-10-05T14:05:28.078Z,24.60
2022-10-05T14:07:55.954Z,24.81
2022-10-05T14:10:39.190Z,24.94
2022-10-05T14:13:26.792Z,24.63
2022-10-05T14:16:23.793Z,25.05
2022-10-05T14:18:52.828Z,24.66
2022-10-05T14:21:22.892Z,25.12
2022-10-05T14:23:51.072Z,25.32
2022-10-05T14:26:23.260Z,25.58
2022-10-05T14:29:14.261Z,25.40
2022-10-05T14:31:52.083Z,25.53
2022-10-05T14:34:43.083Z,25.03
2022-10-05T14:37:31.487Z,25.42
2022-10-05T14:40:20.766Z,25.60
2022-10-05T14:42:47.559Z,25.81
2022-10-05T14:45:29.996Z,25.84
2022-10-05T14:48:08.572Z,25.82
2022-10-05T14:50:50.763Z,25.53
2022-10-05T14:53:21.154Z,25.77
2022-10-05T14:56:08.696Z,25.40
2022-10-05T14:59:21.221Z,25.41
2022-10-05T15:02:37.719Z,25.28
2022-10-05T15:05:31.343Z,25.36
2022-10-05T15:09:16.425Z,26.01
2022-10-05T15:11:51.224Z,26.28
2022-10-05T15:14:34.770Z,25.85
2022-10-05T15:17:13.078Z,25.98
2022-10-05T15:19:53.305Z,26.29
2022-10-05T15:22:31.659Z,26.23
2022-10-05T15:25:09.526Z,26.09
2022-10-05T15:28:03.962Z,26.40
2022-10-05T15:30:35.848Z,26.52
2022-10-05T15:33:28.707Z,26.90
2022-10-05T15:36:49.304Z,27.25
2022-10-05T15:39:20.659Z,27.11
2022-10-05T15:42:10.984Z,26.79
2022-10-05T15:45:03.065Z,26.97
2022-10-05T15:48:04.937Z,27.37
2022-10-05T15:50:57.460Z,26.67
2022-10-05T15:53:37.754Z,26.33
2022-10-05T15:56:30.111Z,25.88
2022-10-05T15:59:06.935Z,26.08
2022-10-05T16:01:33.505Z,25.86
2022-10-05T16:04:10.823Z,25.93
2022-10-05T16:07:16.472Z,25.94
2022-10-05T16:09:56.172Z,25.79
2022-10-05T16:12:33.532Z,25.41
2022-10-05T16:15:04.316Z,25.50
2022-10-05T16:17:50.148Z,25.62
2022-10-05T16:20:25.488Z,25.44
2022-10-05T16:23:13.131Z,25.54
2022-10-05T16:26:02.216Z,25.33
2022-10-05T16:28:45.877Z,24.75
2022-10-05T16:31:19.504Z,24.39
2022-10-05T16:33:58.883Z,24.12
2022-10-05T16:36:44.451Z,23.68
2022-10-05T16:39:41.905Z,23.35
2022-10-05T16:42:24.348Z,22.90
2022-10-05T16:44:56.852Z,22.54
2022-10-05T16:47:32.326Z,22.15
2022-10-05T16:50:20.379Z,21.88
2022-10-05T16:52:54.553Z,21.59
2022-10-05T16:55:30.637Z,21.25
2022-10-05T16:58:00.860Z,21.03
2022-10-05T17:00:51.952Z,20.83
2022-10-05T17:03:26.416Z,20.79
2022-10-05T17:05:59.744Z,20.71
2022-10-05T17:08:45.545Z,20.39
2022-10-05T17:11:23.553Z,20.20
2022-10-05T17:14:24.457Z,20.07
2022-10-05T17:17:20.863Z,19.94
2022-10-05T17:20:11.072Z,19.82
2022-10-05T17:22:50.805Z,19.80
2022-10-05T17:25:34.136Z,19.66
2022-10-05T17:28:18.893Z,19.44
2022-10-05T17:31:21.788Z,19.38
2022-10-05T17:34:00.055Z,19.25
2022-10-05T17:36:48.123Z,19.29
2022-10-05T17:39:17.691Z,19.21
2022-10-05T17:41:44.934Z,19.23
2022-10-05T17:44:13.242Z,19.17
2022-10-05T17:46:45.903Z,19.00
2022-10-05T17:49:25.473Z,18.86
2022-10-05T17:52:10.794Z,18.74
2022-10-05T17:55:04.832Z,18.70
2022-10-05T17:57:33.851Z,18.66
2022-10-05T18:00:06.752Z,18.67
2022-10-05T18:02:36.835Z,18.62
2022-10-05T18:05:04.172Z,18.42
2022-10-05T18:07:32.279Z,18.47
2022-10-05T18:10:15.329Z,18.40
2022-10-05T18:12:51.355Z,18.44
2022-10-05T18:15:24.024Z,18.48
2022-10-05T18:17:59.558Z,18.37
2022-10-05T18:20:28.994Z,18.28
2022-10-05T18:23:01.142Z,18.32
2022-10-05T18:25:43.629Z,18.22
2022-10-05T18:28:22.939Z,18.24
2022-10-05T18:31:23.542Z,18.17
2022-10-05T18:34:23.815Z,18.04
2022-10-05T18:37:32.730Z,18.02
2022-10-05T18:40:21.267Z,18.06
2022-10-05T18:42:51.616Z,18.03
2022-10-05T18:45:31.903Z,17.90
2022-10-05T18:48:35.542Z,17.81
2022-10-05T18:51:12.712Z,17.81
2022-10-05T18:53:45.690Z,17.80
2022-10-05T18:56:33.815Z,17.77
2022-10-05T18:59:32.072Z,17.70
2022-10-05T19:02:04.404Z,17.61
2022-10-05T19:05:23.662Z,17.50
2022-10-05T19:08:28.124Z,17.54
2022-10-05T19:11:01.448Z,17.38
2022-10-05T19:13:48.303Z,17.44
2022-10-05T19:16:40.697Z,17.41
2022-10-05T19:19:33.141Z,17.36
2022-10-05T19:22:05.732Z,17.32
2022-10-05T19:24:37.442Z,17.14
2022-10-05T19:27:39.454Z,17.04
2022-10-05T19:30:25.241Z,16.84
2022-10-05T19:33:10.259Z,16.75
2022-10-05T19:36:04.088Z,16.66
2022-10-05T19:39:01.991Z,16.71
2022-10-05T19:41:35.494Z,16.66
2022-10-05T19:44:22.936Z,16.59
2022-10-05T19:46:53.381Z,16.63
2022-10-05T19:49:49.246Z,16.70
2022-10-05T19:52:22.852Z,16.61
2022-10-05T19:55:10.913Z,16.61
2022-10-05T19:57:49.643Z,16.67
2022-10-05T20:00:52.397Z,16.66
2022-10-05T20:03:27.528Z,16.60
2022-10-05T20:05:56.397Z,16.61
2022-10-05T20:08:26.832Z,16.63
2022-10-05T20:11:27.368Z,16.62
2022-10-05T20:13:53.929Z,16.67
2022-10-05T20:16:46.591Z,16.66
2022-10-05T20:19:54.357Z,16.67
2022-10-05T20:22:34.858Z,16.64
2022-10-05T20:25:24.252Z,16.59
2022-10-05T20:27:57.793Z,16.66
2022-10-05T20:30:27.469Z,16.63
2022-10-05T20:32:59.558Z,16.62
2022-10-05T20:35:30.408Z,16.65
2022-10-05T20:37:59.690Z,16.63
2022-10-05T20:40:28.939Z,16.60
2022-10-05T20:42:56.912Z,16.61
2022-10-05T20:45:23.658Z,16.62
2022-10-05T20:47:50.725Z,16.63
2022-10-05T20:50:17.561Z,16.59
2022-10-05T20:52:44.105Z,16.55
2022-10-05T20:55:11.892Z,16.51
2022-10-05T20:57:41.828Z,16.46
2022-10-05T21:00:10.558Z,16.42
2022-10-05T21:02:38.045Z,16.47
2022-10-05T21:05:05.175Z,16.50
2022-10-05T21:07:34.048Z,16.44
2022-10-05T21:10:01.352Z,16.37
2022-10-05T21:12:27.945Z,16.42
2022-10-05T21:14:54.392Z,16.35
2022-10-05T21:17:20.843Z,16.36
2022-10-05T21:19:47.437Z,16.37
2022-10-05T21:22:14.038Z,16.24
2022-10-05T21:24:41.009Z,16.21
2022-10-05T21:27:08.264Z,16.16
2022-10-05T21:29:35.701Z,16.17
2022-10-05T21:32:02.255Z,16.20
2022-10-05T21:34:28.846Z,16.22
2022-10-05T21:36:55.462Z,16.09
2022-10-05T21:39:21.968Z,16.15
2022-10-05T21:41:49.786Z,16.10
2022-10-05T21:44:16.725Z,16.04
2022-10-05T21:46:43.695Z,16.02
2022-10-05T21:49:10.195Z,16.01
2022-10-05T21:51:36.809Z,15.92
2022-10-05T21:54:09.545Z,15.90
2022-10-05T21:56:40.141Z,15.89
2022-10-05T21:59:10.990Z,15.87
2022-10-05T22:01:37.804Z,15.77
2022-10-05T22:04:05.757Z,15.72
2022-10-05T22:06:32.616Z,15.77
2022-10-05T22:08:59.646Z,15.71
2022-10-05T22:11:27.966Z,15.67
2022-10-05T22:14:01.586Z,15.68
2022-10-05T22:16:33.662Z,15.74
2022-10-05T22:19:05.870Z,15.69
2022-10-05T22:21:34.291Z,15.73
2022-10-05T22:24:02.352Z,15.71
2022-10-05T22:26:28.928Z,15.78
2022-10-05T22:28:56.766Z,15.81
2022-10-05T22:31:23.741Z,15.77
2022-10-05T22:33:50.385Z,15.78
2022-10-05T22:36:17.087Z,15.79
2022-10-05T22:38:44.738Z,15.71
2022-10-05T22:41:12.268Z,15.58
2022-10-05T22:43:39.136Z,15.53
2022-10-05T22:46:10.929Z,15.41
2022-10-05T22:48:37.951Z,15.32
2022-10-05T22:51:05.205Z,15.15
2022-10-05T22:53:32.008Z,15.03
2022-10-05T22:56:05.125Z,14.91
2022-10-05T22:58:31.678Z,14.93
2022-10-05T23:01:10.413Z,14.80
2022-10-05T23:03:36.962Z,14.73
2022-10-05T23:06:06.143Z,14.50
2022-10-05T23:08:34.286Z,14.51
2022-10-05T23:11:09.537Z,14.46
2022-10-05T23:13:36.044Z,14.40
2022-10-05T23:16:14.265Z,14.35
2022-10-05T23:18:41.513Z,14.31
2022-10-05T23:21:09.778Z,14.21
2022-10-05T23:23:37.438Z,14.10
2022-10-05T23:26:05.534Z,14.05
2022-10-05T23:28:32.635Z,14.01
2022-10-05T23:31:00.706Z,13.95
2022-10-05T23:33:28.119Z,13.94
2022-10-05T23:36:03.434Z,13.97
2022-10-05T23:38:30.896Z,13.80
2022-10-05T23:40:58.881Z,13.72
2022-10-05T23:43:26.403Z,13.77
2022-10-05T23:45:54.264Z,13.73
2022-10-05T23:48:20.782Z,13.58
2022-10-05T23:50:48.294Z,13.49
2022-10-05T23:53:15.783Z,13.40
2022-10-05T23:55:43.051Z,13.34
2022-10-05T23:58:09.761Z,13.31
